Dutch
Home     News     Corporate     Events & Tours     Flight ops     Crew centre      
My transavia virtual    Join us    Last logs    Who is flying    Forum    Software    Training    VRTS     
 

view flightdata
view flightplan
view OFP
view flightlog



flightdata:
pilot: Daan Crijnen
flight: TRA6883
from: EHAM (Amsterdam Schiphol)
to: GMAD (Agadir)
date: 30-11-2019
departure: 14:36z
arrival: 18:33z
duration: 3:57
aircraft: B738 (PHHXJ)
distance: 1509 NM
touchdown: -44 ft/m @ 145 KIAS



flightplan:
-(FPL-TRA6883-IS
-B738/M-SDEEFGHIJRWXY/LB1
-EHAM1355
-N0444F370 WOODY UN872 KOVIN UM728 RESMI/N0439F410 UN857 IBALU UR724 NISBA/N0391F330 UR724 ESS R724 AGALI
-GMAD0353 GMAG
-PBN/B1D1O1S1 DOF/191130 REG/PHHXJ EET/EBUR0012 LFFF0021 LECM0134 GMMM0250 SEL/LSGQ OPR/TRA PER/C)



operational flightplan (OFP):
DISPATCH BRIEFING (TEL:
--------- --------- --------- --------- --------- --------- ---------  
PREDEPARTURE ATC CLEARANCE:
.
.
--------- --------- --------- --------- --------- --------- ---------  
OFP  1    30 NOV 19/14:29
                                    OBS  N/A

TRA6883    C/S TRA6881  EHAM/AMS   GMAD/AGA         CRZ SYS      CI 7
30 NOV 19  PH-HXJ       1605/1605  1955/2000        GND DIST     1518
B737-800 CFTAB:.....    CTOT:....  STA  1955        AIR DIST     1518
                                                    AVG W/C         0
MAXIMUM    ZFW  62731  LAW  66360  TOW  78975       AVG ISA       M03
ESTIMATED  ZFW  46707  LAW  49207  TOW  57085       F-F FACTOR    2.4
ACTUAL     ZFW  .....  LAW  .....  TOW  .....
--------- --------- --------- --------- --------- --------- ---------
TRIP        7878   0340           .....  .....
CONT         394   0013           .....  .....
ALTN         829   0020  GMAG     .....  .....  ....
FINAL        907   0030           .....  .....
ADDNL        370   0012           .....  .....
TANKERING                  
PLN TOF    10008   0443
DIFF        ....   ....
PLN TOF     ....   ....  (CORRECTED)   
EXTRA          0   ....                  
TOF        10008   ....                 
TAXI         200   ....                  
BLOCK      10578   ....        
--------- --------- --------- --------- --------- --------- ---------
REASON EXTRA FUEL      MATRIX FUEL:
O ECN-ECONAMICAL     O TMP-TEMPORARILY      O ATC-AIR TRAFFIC CNTRL
O FOB-FUEL ON.BOARD  O MSC-MISCELLANEOUS    O FPC-FLIGHT PLN CORR
O WXR-WEATHER        O TEC-TECHNICAL        ACT.CI/CRZ USED: . . .   

--------- --------- --------- --------- --------- --------- ---------

ZFW ZFW 1000 : PLN TOF   XXXXX/TRIP XXXXX 00 MIN HOLD DEST: 0 EXTRA
ZFW ZFW-1000 : PLN TOF   XXXXX/TRIP XXXXX
--------- --------- --------- --------- --------- --------- ---------
COMMANDERS NAME:                           SIGNATURE:

--------- --------- --------- --------- --------- --------- ---------
FROM:  EHAM ELEV-11      TO: GMAD ELEV253        ALTN: GMAG ELEV1119
ATC C/S     : TRA68TRA6883            AVG ISA : M03
CO-ROUTE    :                        AVG TT  :   
FMC-RES FUEL: 1736                   AVG W/C :    0
CRZ ALT     : FL390                  FL310
CI          : CI 7                   FL200     360/000
                                     FL100

EHAM/27  N0434F390 DCT WOODY UN872 KOVIN UM728 RESMI/N0439F410 UN857
IBALU UR724 NISBA/N0391F330 UR724 ESS R724 AGALI DCT GMAD/27

--------- --------- --------- --------- --------- --------- ---------
.
.
--------- --------- --------- --------- --------- --------- ---------
RVSM ALT CHECK:  FL:...... LEFT: ...... STBY: ...... RIGHT: ......

--------- --------- --------- --------- --------- --------- ---------
DESTINATION ALTERNATE GMAG
--------- --------- --------- --------- --------- --------- ---------

--------- --------- --------- --------- --------- --------- ---------
--------- --------- --------- --------- --------- --------- ---------
ALTERNATE SUMMARY
--------- --------- --------- --------- --------- --------- ---------
      ALTN        DIST   LVL       WC TIME  FUEL VIA
      GMAG/23       86  FL170    0 0020   829 DCT
INFO/GMMI/34       94  FL060    0 0024   942 MOGB3D MOGBA H300 ESS
INFO/GMMX/28      138  FL260    0 0028  1139 OLOM3D OLOMA UG850
                                           LISRA LISR2A
INFO/GMMZ/30      181  FL340    0 0034  1403 KEGA3D KEGAG UG664
                                           LINVA LINV1A
--------- --------- --------- --------- --------- --------- ---------


-(FPL-TRA6883-IS
-B738/M-SDEEFGHIJRWXY/LB1
-EHAM1355
-N0444F370 WOODY UN872 KOVIN UM728 RESMI/N0439F410 UN857 IBALU UR724 NISBA/N0391F330 UR724 ESS R724 AGALI
-GMAD0353 GMAG
-PBN/B1D1O1S1 DOF/191130 REG/PHHXJ EET/EBUR0012 LFFF0021 LECM0134 GMMM0250 SEL/LSGQ OPR/TRA PER/C)

WEATHER BRIEFING - GENERATED 30 NOV 2019 14:29 UTC
--------------------------------------------------------------------------------

EHAM GMAD GMAG GMMI GMMX GMMZ

--------------------------------------------------------------------------------
ORIGIN: EHAM (SCHIPHOL)
--------------------------------------------------------------------------------
EHAM 301355Z 16002KT 9999 FEW024 09/03 Q1023 NOSIG

EHAM 301100Z 3012/0118 VRB03KT 9999 FEW025
      BECMG 3018/3021 6000 MIFG PROB40
      TEMPO 3021/0110 0800 BCFG
      BECMG 0110/0113 05005KT 9999 NSW


--------------------------------------------------------------------------------
DESTINATION: GMAD (AGADIR)
--------------------------------------------------------------------------------
GMAD 301400Z 28010KT CAVOK 27/03 Q1018 NOSIG

GMAD 301100Z 3012/0118 08008KT CAVOK


--------------------------------------------------------------------------------
ALTERNATE: GMAG (NOT FOUND)
--------------------------------------------------------------------------------

GMAG 301100Z 3012/0118 18004KT CAVOK=  GMMH 301100Z 3012/0118 22006KT 8000 SCT016 PROB40 3016/0110 OVC006 PROB40 0102/0107 0600 FG PROB40 0107/0110 3000 BR


--------------------------------------------------------------------------------
ALTERNATE: GMMI (ESSAOUIRA)
--------------------------------------------------------------------------------
GMMI 301400Z 03408KT 7000 NSC 24/10 Q1020 NOSIG

GMMI 300500Z 3006/0112 12006KT 8000 NSC=  GMMW 300500Z 3006/0112 VRB02KT CAVOK


--------------------------------------------------------------------------------
ALTERNATE: GMMX (MARRAKECH)
--------------------------------------------------------------------------------
GMMX 301400Z VRB02KT 8000 SCT100 26/04 Q1021 NOSIG

GMMX 301100Z 3012/0118 06006KT 8000 NSC
      TEMPO 3017/3022 34014KT
      TEMPO 0103/0110 4000 BR BKN010
      BECMG 0114/0117 30012KT SCT023 SCT090


--------------------------------------------------------------------------------
ALTERNATE: GMMZ (OUARZAZATE)
--------------------------------------------------------------------------------
GMMZ 301400Z VRB01KT 9999 FEW030 SCT100 19/M03 Q1023 NOSIG

GMMZ 301100Z 3012/0118 VRB02KT CAVOK


NOTAM BRIEFING - GENERATED 30 NOV 2019 14:29 UTC
--------------------------------------------------------------------------------

EHAM GMAD GMAG GMAG GMMI GMMX GMMZ

--------------------------------------------------------------------------------
GLOBAL TRANSAVIA.COM VIRTUAL NOTAMS
--------------------------------------------------------------------------------
REF:NIL PLEASE CONTACT OPERATIONS IN CASE OF STRUCTURAL FLIGHTPLAN ERRORS ON FLIGHT-OPS@TRANSAVIA-VIRTUAL.COM
VALID:UFN

REF:NIL
PLEASE CHECK ACARS EVERY 10 MINUTES WHEN FLYING WITH SOUND OFF. AN NEW ACARS MESSAGE PRODUCE A SOUND SIGNAL UNTILL ITS READ. FLOWCONTROL DON'T RECEIVE MUCH REACTION ON OUTGOING ACARS MESSAGES ACCORDING FLIGHTSTATUS.
SOURCE: SPL/HV/OCC/
END VALID: UFN

REF:NIL
PLEASE CONTACT FLOWCONTROL IN CASE OF PROBLEMS WITH ROUTINGS
SOURCE: SPL/HV/OCC/
END VALID: UFN

REF:NIL
IN CASE OF ENGINE-OUT FLY V2 OR V2 20 MAX. UNTIL ABOVE MSA.
LEVEL-OFF AT AN ALTITUDE ROUNDED OFF TO THE FIRST 1000 FT OF THE HIGHEST MSA.
E.G: MSA EHAM; 1.7 AND 2.3 LEVEL-OFF 3000 FT. AFTER LANDING MAKE A REP TO OCC ON 131.975
SOURCE:SPL/HV/OCC
END VALID:UFN



flightlog:
Pilot : Daan Crijnen
Flight: TRA6883
From  : EHAM Schiphol
To    : GMAD Agadir

[FLIGHTLOG] 1.5.4
30-11-2019 14:30:05z, logging started
30-11-2019 14:36:11z, parking brake released
30-11-2019 14:42:03z, flaps set to 13%
30-11-2019 14:42:11z, flaps set to 25%
30-11-2019 14:42:14z, flaps set to 38%
30-11-2019 14:44:58z, pos report: 009 KIAS, 00 013 ft, heading 058, winds 000 @ 00 kts
30-11-2019 14:49:30z, take-off at 157 KIAS
30-11-2019 14:49:30z, pos report: 157 KIAS, 00 017 ft, heading 183, winds 000 @ 00 kts
30-11-2019 14:49:30z, flying online @ VATSIM (TRA6883)
30-11-2019 14:49:30z, position: EHAM - Schiphol
30-11-2019 14:49:35z, retracted gear at 167 KIAS and 81 ft AGL
30-11-2019 14:50:34z, flaps set to 25%
30-11-2019 14:50:37z, flaps set to 13%
30-11-2019 14:51:23z, flaps set to 0%
30-11-2019 15:00:00z, pos report: 346 KIAS, 23 243 ft, heading 208, winds 309 @ 15 kts
30-11-2019 15:15:00z, pos report: 268 KIAS, 37 190 ft, heading 208, winds 268 @ 46 kts
30-11-2019 15:30:02z, pos report: 268 KIAS, 37 033 ft, heading 211, winds 254 @ 55 kts
30-11-2019 15:45:02z, pos report: 269 KIAS, 36 968 ft, heading 212, winds 249 @ 77 kts
30-11-2019 16:00:03z, pos report: 269 KIAS, 36 970 ft, heading 210, winds 242 @ 77 kts
30-11-2019 16:15:04z, pos report: 269 KIAS, 37 024 ft, heading 212, winds 249 @ 88 kts
30-11-2019 16:30:05z, pos report: 251 KIAS, 38 987 ft, heading 213, winds 257 @ 74 kts
30-11-2019 16:45:05z, pos report: 253 KIAS, 39 082 ft, heading 220, winds 261 @ 58 kts
30-11-2019 17:00:06z, pos report: 254 KIAS, 39 112 ft, heading 218, winds 266 @ 49 kts
30-11-2019 17:15:07z, pos report: 255 KIAS, 39 169 ft, heading 221, winds 274 @ 43 kts
30-11-2019 17:30:09z, pos report: 255 KIAS, 39 201 ft, heading 219, winds 269 @ 31 kts
30-11-2019 17:45:09z, pos report: 255 KIAS, 39 216 ft, heading 218, winds 262 @ 24 kts
30-11-2019 18:00:10z, pos report: 256 KIAS, 39 210 ft, heading 196, winds 256 @ 18 kts
30-11-2019 18:15:11z, pos report: 334 KIAS, 17 332 ft, heading 182, winds 295 @ 07 kts
30-11-2019 18:23:17z, above glideslope
30-11-2019 18:23:41z, on glideslope
30-11-2019 18:23:57z, flaps set to 13%
30-11-2019 18:24:20z, below glideslope
30-11-2019 18:25:11z, intercepted localizer
30-11-2019 18:25:16z, flaps set to 25%
30-11-2019 18:25:20z, flaps set to 38%
30-11-2019 18:25:38z, on glideslope
30-11-2019 18:25:55z, flaps set to 50%
30-11-2019 18:25:59z, lowered gear at 170 KIAS and 2449 ft AGL
30-11-2019 18:26:46z, flaps set to 75%
30-11-2019 18:26:55z, flaps set to 87%
30-11-2019 18:29:26z, touchdown: -338ft/m at 148 KIAS
30-11-2019 18:29:26z, pos report: 148 KIAS, 00 259 ft, heading 273, winds 250 @ 10 kts
30-11-2019 18:29:26z, flying online @ VATSIM (TRA6883)
30-11-2019 18:29:26z, position: GMAD - Agadir
30-11-2019 18:29:27z, deployed spoilers
30-11-2019 18:29:28z, touchdown: -44ft/m at 145 KIAS
30-11-2019 18:29:28z, pos report: 145 KIAS, 00 259 ft, heading 274, winds 250 @ 10 kts
30-11-2019 18:29:28z, flying online @ VATSIM (TRA6883)
30-11-2019 18:29:28z, position: GMAD - Agadir
30-11-2019 18:30:01z, retracted spoilers
30-11-2019 18:30:10z, deployed spoilers
30-11-2019 18:30:13z, pos report: 015 KIAS, 00 257 ft, heading 348, winds 250 @ 10 kts
30-11-2019 18:30:17z, retracted spoilers
30-11-2019 18:30:31z, flaps set to 75%
30-11-2019 18:30:34z, flaps set to 62%
30-11-2019 18:30:37z, flaps set to 50%
30-11-2019 18:30:40z, flaps set to 38%
30-11-2019 18:30:44z, flaps set to 25%
30-11-2019 18:30:47z, flaps set to 13%
30-11-2019 18:30:54z, flaps set to 0%
30-11-2019 18:33:48z, parking brake set
30-11-2019 18:39:26z, logging ended

©2009-2020, transavia virtual. All rights reserved. This website is only meant for simulation purposes.
This website is not owned by transavia, nor is transavia responsible for the content of this website.